Time;durP1;ratioP1;P1;durP2;ratioP2;P2;SDS_P1;SDS_P2;PMS_P1;PMS_P2;Temp;Humidity;BMP_temperature;BMP_pressure;BME280_temperature;BME280_humidity;BME280_pressure;Samples;Min_cycle;Max_cycle;Signal;HPM_P1;HPM_P2
2022/02/11 00:00:30;;;;;;;11.23;9.85;;;;;;;7.79;83.59;98548.19;4188928;28;20697;-89
2022/02/11 00:07:25;;;;;;;13.98;8.77;;;;;;;7.85;82.57;98541.84;4124624;28;20594;-89
2022/02/11 00:09:28;;;;;;;12.73;9.25;;;;;;;7.85;82.64;98537.50;4105450;28;20209;-91
2022/02/11 00:11:33;;;;;;;11.20;9.10;;;;;;;7.84;82.73;98528.03;4120931;28;20343;-91
2022/02/11 00:13:37;;;;;;;15.65;10.57;;;;;;;7.90;82.12;98532.09;4144975;28;20238;-91
2022/02/11 00:15:45;;;;;;;13.52;10.48;;;;;;;7.93;81.42;98516.34;4140674;28;20230;-91
2022/02/11 00:17:49;;;;;;;14.93;10.55;;;;;;;7.95;81.86;98520.53;4125473;28;20665;-90
2022/02/11 00:19:52;;;;;;;16.05;10.75;;;;;;;7.93;82.07;98524.16;4138197;28;20592;-90
2022/02/11 00:21:58;;;;;;;15.23;11.45;;;;;;;7.91;82.70;98513.84;4141860;28;20212;-90
2022/02/11 00:24:02;;;;;;;14.07;11.30;;;;;;;7.90;82.44;98519.09;4135240;28;20247;-91
2022/02/11 00:26:07;;;;;;;14.05;10.82;;;;;;;7.90;83.12;98519.94;4121908;28;20240;-91
2022/02/11 00:31:03;;;;;;;17.02;11.60;;;;;;;7.89;84.27;98507.03;4150335;28;20211;-91
2022/02/11 00:33:15;;;;;;;12.85;10.27;;;;;;;7.89;82.82;98492.28;4137716;28;20577;-91
2022/02/11 00:35:27;;;;;;;12.65;9.40;;;;;;;7.91;84.19;98498.25;4123863;28;20468;-91
2022/02/11 00:37:37;;;;;;;10.82;8.55;;;;;;;7.95;83.16;98507.56;4142664;28;20216;-91
2022/02/11 00:40:09;;;;;;;12.45;8.55;;;;;;;7.93;83.60;98512.00;4150986;28;20213;-91
2022/02/11 01:03:16;;;;;;;8.98;5.90;;;;;;;8.22;80.25;98529.53;4136411;28;20298;-91
2022/02/11 01:05:21;;;;;;;8.00;6.15;;;;;;;8.22;80.03;98529.53;4156179;28;20241;-91
2022/02/11 01:07:24;;;;;;;12.50;6.15;;;;;;;8.19;78.61;98524.50;4144539;28;20212;-89
2022/02/11 01:09:31;;;;;;;9.55;6.30;;;;;;;8.16;78.75;98533.31;4134970;28;20698;-90
2022/02/11 01:11:39;;;;;;;8.35;6.43;;;;;;;8.21;79.18;98531.31;4144525;28;20246;-91
2022/02/11 01:13:42;;;;;;;8.82;5.90;;;;;;;8.20;79.41;98531.38;4156895;28;20225;-88
2022/02/11 01:15:53;;;;;;;9.93;6.30;;;;;;;8.14;78.46;98531.69;4128074;28;20291;-91
2022/02/11 01:18:01;;;;;;;7.10;6.25;;;;;;;8.15;78.04;98533.41;4153879;28;20666;-90
2022/02/11 01:20:14;;;;;;;7.68;5.85;;;;;;;8.13;79.44;98528.28;4155837;28;20210;-91
2022/02/11 01:22:28;;;;;;;10.52;5.90;;;;;;;8.15;79.26;98526.44;4142052;28;20309;-89
2022/02/11 01:24:55;;;;;;;10.20;6.47;;;;;;;8.15;78.87;98523.84;4158478;28;20213;-89
2022/02/11 01:27:16;;;;;;;9.90;5.95;;;;;;;8.14;79.05;98514.34;4145080;28;20215;-92
2022/02/11 01:31:50;;;;;;;9.23;5.68;;;;;;;8.14;78.82;98514.34;4143122;28;20616;-91
2022/02/11 01:34:13;;;;;;;6.95;5.90;;;;;;;8.14;79.25;98510.94;4156538;28;20711;-91
2022/02/11 01:36:36;;;;;;;8.43;6.40;;;;;;;8.16;79.03;98509.94;4138007;28;20753;-89
2022/02/11 01:38:54;;;;;;;9.48;6.75;;;;;;;8.14;77.66;98509.16;4143062;28;20337;-90
2022/02/11 01:46:23;;;;;;;13.40;7.10;;;;;;;8.06;79.85;98502.66;4140551;28;20246;-91
2022/02/11 01:49:02;;;;;;;11.02;7.25;;;;;;;8.11;79.13;98506.72;4155758;28;20221;-91
2022/02/11 01:53:31;;;;;;;8.68;6.70;;;;;;;8.00;78.82;98497.78;4140055;28;20211;-91
2022/02/11 01:55:59;;;;;;;10.38;7.13;;;;;;;7.97;79.92;98500.53;4125576;28;20247;-91
2022/02/11 02:00:50;;;;;;;8.77;6.90;;;;;;;7.95;78.98;98515.34;4136717;28;20565;-90
2022/02/11 02:05:57;;;;;;;10.23;7.28;;;;;;;7.93;79.43;98506.81;4143009;28;20204;-90
2022/02/11 02:20:46;;;;;;;11.80;7.50;;;;;;;7.88;80.34;98513.13;4140613;28;21142;-89
2022/02/11 02:25:03;;;;;;;11.07;7.40;;;;;;;7.86;81.19;98508.03;4140184;28;20208;-91
2022/02/11 02:27:24;;;;;;;10.20;6.75;;;;;;;7.84;82.88;98506.44;4138077;28;20239;-90
2022/02/11 02:30:22;;;;;;;10.25;7.03;;;;;;;7.78;82.64;98498.97;4142245;28;20690;-91
2022/02/11 02:37:10;;;;;;;9.55;6.85;;;;;;;7.66;83.36;98507.34;4141748;28;20232;-90
2022/02/11 02:39:30;;;;;;;9.75;7.20;;;;;;;7.67;84.27;98511.66;4134565;28;20306;-90
2022/02/11 02:58:46;;;;;;;10.25;7.03;;;;;;;7.58;87.12;98522.47;4140023;28;20749;-91
2022/02/11 03:01:09;;;;;;;9.88;7.20;;;;;;;7.56;86.27;98522.56;4141329;28;20212;-91
2022/02/11 03:15:24;;;;;;;12.05;7.40;;;;;;;7.46;89.10;98545.56;4143103;28;20567;-90
2022/02/11 04:27:07;;;;;;;2.35;2.08;;;;;;;5.60;91.23;98693.88;4253854;27;20207;-91
2022/02/11 04:53:11;;;;;;;2.50;2.30;;;;;;;5.45;91.98;98768.63;4188523;28;20227;-90
2022/02/11 04:55:22;;;;;;;2.55;2.30;;;;;;;5.42;91.58;98773.91;4203127;28;20209;-89
2022/02/11 04:59:50;;;;;;;3.13;2.85;;;;;;;5.45;91.76;98779.81;4233704;28;20827;-90
2022/02/11 05:01:53;;;;;;;4.00;3.17;;;;;;;5.42;91.96;98787.69;4248959;27;20197;-89
2022/02/11 05:03:56;;;;;;;3.30;3.00;;;;;;;5.41;91.58;98782.56;4238661;27;20259;-89
2022/02/11 05:06:03;;;;;;;3.30;3.00;;;;;;;5.43;91.36;98791.13;4253501;27;20209;-91
2022/02/11 05:08:09;;;;;;;4.00;3.50;;;;;;;5.43;91.69;98791.97;4237030;27;20601;-90
2022/02/11 05:10:16;;;;;;;4.25;3.70;;;;;;;5.51;91.73;98802.84;4248459;27;20209;-90
2022/02/11 05:12:19;;;;;;;3.85;3.45;;;;;;;5.54;91.79;98799.31;4238455;27;20611;-91
2022/02/11 05:14:22;;;;;;;3.92;3.47;;;;;;;5.58;91.59;98796.56;4222481;28;20874;-90
2022/02/11 05:16:25;;;;;;;5.97;3.65;;;;;;;5.60;91.31;98802.53;4238038;27;20208;-90
2022/02/11 05:18:28;;;;;;;4.63;3.70;;;;;;;5.64;91.36;98801.50;4238536;27;20225;-89
2022/02/11 05:20:32;;;;;;;3.88;3.55;;;;;;;5.64;91.41;98810.09;4238940;27;20232;-90
2022/02/11 05:22:37;;;;;;;4.25;3.85;;;;;;;5.63;90.99;98810.16;4239934;27;20590;-90
2022/02/11 05:24:42;;;;;;;4.05;3.65;;;;;;;5.60;91.76;98816.28;4232187;27;20208;-91
2022/02/11 05:26:45;;;;;;;5.85;3.50;;;;;;;5.61;91.98;98822.31;4258869;27;20195;-90
2022/02/11 05:28:48;;;;;;;3.90;3.50;;;;;;;5.60;91.79;98828.38;4242310;27;20206;-91
2022/02/11 05:30:51;;;;;;;3.90;3.50;;;;;;;5.61;91.52;98825.75;4224220;28;20207;-89
2022/02/11 05:32:54;;;;;;;3.58;3.28;;;;;;;5.60;91.30;98835.31;4241396;27;20207;-89
2022/02/11 05:34:57;;;;;;;4.18;3.78;;;;;;;5.61;91.47;98843.84;4222902;28;20224;-89
2022/02/11 05:37:03;;;;;;;4.38;3.80;;;;;;;5.60;91.42;98849.06;4239087;27;20681;-90
2022/02/11 05:39:10;;;;;;;4.53;3.80;;;;;;;5.56;91.66;98847.50;4226051;28;20217;-87
2022/02/11 05:41:15;;;;;;;4.55;4.00;;;;;;;5.60;91.23;98849.06;4224972;27;20210;-90
2022/02/11 05:43:18;;;;;;;4.45;4.00;;;;;;;5.58;92.14;98865.53;4222760;28;20207;-91
2022/02/11 05:45:21;;;;;;;4.32;3.92;;;;;;;5.62;91.16;98866.25;4223962;28;20234;-89
2022/02/11 05:47:27;;;;;;;6.18;3.72;;;;;;;5.57;91.37;98872.47;4243219;27;20202;-91
2022/02/11 05:49:30;;;;;;;4.25;3.70;;;;;;;5.54;91.70;98887.25;4238167;27;20194;-90
2022/02/11 05:51:34;;;;;;;3.53;3.20;;;;;;;5.53;91.03;98899.34;4240699;27;20796;-90
2022/02/11 05:53:38;;;;;;;3.50;3.20;;;;;;;5.49;91.49;98895.19;4235651;27;20208;-88
2022/02/11 05:55:43;;;;;;;4.70;3.55;;;;;;;5.48;91.38;98892.66;4242197;27;20296;-87
2022/02/11 05:57:46;;;;;;;4.05;3.55;;;;;;;5.51;91.32;98898.56;4239764;27;20219;-81
2022/02/11 05:59:51;;;;;;;3.90;3.50;;;;;;;5.48;90.62;98908.16;4223954;28;20218;-82
2022/02/11 06:01:54;;;;;;;3.35;3.05;;;;;;;5.48;91.26;98906.41;4240580;27;20209;-83
2022/02/11 06:03:57;;;;;;;3.58;3.22;;;;;;;5.50;91.69;98912.38;4240105;27;20202;-82
2022/02/11 06:06:02;;;;;;;3.75;3.40;;;;;;;5.47;91.48;98916.81;4242904;27;20231;-82
2022/02/11 06:08:05;;;;;;;4.85;4.07;;;;;;;5.47;91.48;98927.16;4225293;28;20213;-81
2022/02/11 06:10:09;;;;;;;4.70;4.20;;;;;;;5.43;90.79;98925.59;4224854;28;20205;-82
2022/02/11 06:12:14;;;;;;;6.10;3.88;;;;;;;5.43;90.63;98941.13;4241594;27;20202;-82
2022/02/11 06:14:18;;;;;;;4.00;3.60;;;;;;;5.43;90.09;98941.13;4224287;28;20243;-81
2022/02/11 06:16:21;;;;;;;4.57;3.40;;;;;;;5.45;90.99;98945.31;4238133;27;20235;-83
2022/02/11 06:18:24;;;;;;;4.93;4.10;;;;;;;5.47;91.10;98948.69;4241005;27;20206;-82
2022/02/11 06:20:28;;;;;;;4.18;3.70;;;;;;;5.52;89.94;98944.22;4219947;28;20699;-82
2022/02/11 06:22:33;;;;;;;4.40;4.00;;;;;;;5.50;90.30;98937.41;4229258;27;20218;-83
2022/02/11 06:24:36;;;;;;;4.45;3.75;;;;;;;5.51;90.15;98939.94;4225889;27;20675;-82
2022/02/11 06:26:40;;;;;;;6.18;3.58;;;;;;;5.48;89.75;98947.81;4221164;28;20655;-82
2022/02/11 06:28:44;;;;;;;4.93;4.05;;;;;;;5.46;89.44;98952.19;4221543;28;20244;-82
2022/02/11 06:30:48;;;;;;;4.95;3.83;;;;;;;5.44;90.18;98954.00;4225268;27;20198;-83
2022/02/11 06:32:51;;;;;;;5.35;4.00;;;;;;;5.43;89.53;98962.66;4240056;27;20203;-83
2022/02/11 06:34:56;;;;;;;4.63;3.67;;;;;;;5.41;89.08;98977.38;4238523;27;20206;-82
2022/02/11 06:36:59;;;;;;;6.78;4.40;;;;;;;5.38;89.47;98981.78;4224578;28;20299;-82
2022/02/11 06:39:04;;;;;;;5.15;4.20;;;;;;;5.39;89.35;98981.72;4236516;27;20203;-82
2022/02/11 06:41:08;;;;;;;4.80;4.10;;;;;;;5.40;89.37;98990.38;4237560;27;20237;-80
2022/02/11 06:43:14;;;;;;;5.03;4.53;;;;;;;5.41;89.06;98999.78;4238317;27;20199;-80
2022/02/11 06:45:21;;;;;;;5.78;4.10;;;;;;;5.41;89.15;99008.41;4221880;28;20271;-81
2022/02/11 06:47:24;;;;;;;5.75;4.47;;;;;;;5.38;89.76;99011.09;4238641;27;20623;-80
2022/02/11 06:49:28;;;;;;;5.20;3.95;;;;;;;5.40;90.00;99008.47;4236986;27;20224;-80
2022/02/11 06:51:31;;;;;;;6.07;4.70;;;;;;;5.41;89.81;99016.16;4220317;28;20221;-80
2022/02/11 06:53:36;;;;;;;7.72;5.13;;;;;;;5.43;89.54;99035.06;4220455;28;20302;-81
2022/02/11 06:55:39;;;;;;;5.97;4.75;;;;;;;5.46;89.84;99034.09;4240241;27;20199;-80
2022/02/11 06:57:43;;;;;;;5.53;4.55;;;;;;;5.47;89.75;99036.63;4238326;27;20721;-81
2022/02/11 06:59:46;;;;;;;8.25;5.40;;;;;;;5.50;89.54;99043.44;4222881;28;20219;-81
2022/02/11 07:01:51;;;;;;;6.13;4.80;;;;;;;5.51;89.51;99052.91;4223069;28;20289;-80
2022/02/11 07:03:54;;;;;;;7.18;5.60;;;;;;;5.48;89.53;99051.25;4236218;27;20277;-81
2022/02/11 07:05:58;;;;;;;7.70;5.30;;;;;;;5.53;89.95;99057.13;4239649;27;20202;-81
2022/02/11 07:08:02;;;;;;;9.07;6.03;;;;;;;5.55;89.81;99063.09;4216128;28;20206;-80
2022/02/11 07:10:07;;;;;;;8.98;6.10;;;;;;;5.55;89.25;99063.09;4240666;27;20289;-80
2022/02/11 07:12:11;;;;;;;9.82;5.05;;;;;;;5.56;89.51;99062.19;4222865;28;20709;-80
2022/02/11 07:14:14;;;;;;;8.75;5.55;;;;;;;5.56;89.20;99067.38;4237305;27;20233;-81
2022/02/11 07:16:17;;;;;;;7.13;5.03;;;;;;;5.56;88.98;99069.94;4222444;28;20214;-81
2022/02/11 07:18:22;;;;;;;7.13;5.20;;;;;;;5.54;88.86;99074.34;4220075;28;20218;-81
2022/02/11 07:20:25;;;;;;;6.88;5.07;;;;;;;5.54;88.36;99079.50;4223881;28;20217;-81
2022/02/11 07:22:34;;;;;;;7.80;5.78;;;;;;;5.55;88.92;99080.34;4238820;27;20303;-82
2022/02/11 07:24:37;;;;;;;6.70;5.43;;;;;;;5.55;88.23;99082.94;4239833;27;20235;-81
2022/02/11 07:26:40;;;;;;;6.95;5.25;;;;;;;5.55;88.37;99083.81;4256704;27;20202;-81
2022/02/11 07:28:43;;;;;;;8.32;5.93;;;;;;;5.58;87.68;99095.75;4238794;27;20250;-81
2022/02/11 07:30:48;;;;;;;6.00;4.93;;;;;;;5.60;88.33;99102.59;4235750;27;20210;-81
2022/02/11 07:32:52;;;;;;;7.60;5.50;;;;;;;5.61;88.68;99105.13;4236491;27;20202;-80
2022/02/11 07:34:57;;;;;;;8.50;5.38;;;;;;;5.65;88.60;99101.56;4234991;27;20719;-81
2022/02/11 07:37:01;;;;;;;6.70;5.07;;;;;;;5.73;88.56;99109.06;4239825;27;20233;-81
2022/02/11 07:39:24;;;;;;;11.13;7.05;;;;;;;5.77;88.68;99116.72;4235102;27;20206;-81
2022/02/11 07:41:27;;;;;;;6.95;5.50;;;;;;;5.80;88.08;99128.69;4237110;27;20214;-82
2022/02/11 07:43:33;;;;;;;7.03;5.15;;;;;;;5.82;88.41;99132.09;4238140;27;20227;-84
2022/02/11 07:45:44;;;;;;;8.32;4.95;;;;;;;5.85;87.92;99132.81;4236818;27;20196;-80
2022/02/11 07:47:50;;;;;;;6.05;4.57;;;;;;;5.90;88.34;99143.03;4243938;27;20225;-80
2022/02/11 07:49:53;;;;;;;8.50;5.20;;;;;;;5.94;88.08;99148.06;4235318;27;20210;-80
2022/02/11 07:51:58;;;;;;;10.77;5.20;;;;;;;5.97;88.15;99147.97;4224603;28;20200;-80
2022/02/11 07:54:01;;;;;;;8.98;4.90;;;;;;;6.02;88.51;99151.22;4227464;28;20230;-80
2022/02/11 07:56:05;;;;;;;9.32;4.70;;;;;;;6.06;88.69;99159.72;4234391;27;20214;-80
2022/02/11 07:58:08;;;;;;;7.20;4.88;;;;;;;6.08;87.60;99167.38;4217897;28;20212;-80
2022/02/11 08:00:12;;;;;;;7.95;5.00;;;;;;;6.11;87.86;99167.28;4221099;28;20216;-81
2022/02/11 08:02:16;;;;;;;6.70;5.13;;;;;;;6.16;88.18;99170.59;4237797;28;20305;-80
2022/02/11 08:04:19;;;;;;;8.02;4.65;;;;;;;6.20;87.71;99174.75;4239440;27;20649;-81
2022/02/11 08:06:22;;;;;;;6.93;5.15;;;;;;;6.22;87.59;99174.69;4224904;28;20218;-80
2022/02/11 08:08:31;;;;;;;7.32;5.03;;;;;;;6.26;87.43;99184.91;4220642;28;20237;-82
2022/02/11 08:10:37;;;;;;;7.45;4.75;;;;;;;6.30;86.87;99191.69;4222591;28;20217;-80
2022/02/11 08:12:42;;;;;;;7.43;4.78;;;;;;;6.32;86.44;99195.06;4240985;28;20240;-80
2022/02/11 08:14:48;;;;;;;7.25;4.22;;;;;;;6.30;86.14;99199.47;4241935;28;20558;-80
2022/02/11 08:16:52;;;;;;;4.78;4.20;;;;;;;6.32;86.76;99199.41;4239115;27;20203;-80
2022/02/11 08:18:55;;;;;;;6.50;4.10;;;;;;;6.36;85.98;99207.03;4239815;27;20751;-82
2022/02/11 08:21:00;;;;;;;5.47;4.35;;;;;;;6.38;86.54;99212.97;4235336;28;20279;-82
2022/02/11 08:23:03;;;;;;;6.72;4.47;;;;;;;6.39;86.44;99219.88;4239477;27;20251;-82
2022/02/11 08:25:08;;;;;;;5.82;4.07;;;;;;;6.27;85.73;99224.59;4230296;28;20200;-82
2022/02/11 08:27:14;;;;;;;4.53;3.67;;;;;;;6.25;86.49;99222.03;4239226;27;20207;-82
2022/02/11 08:29:21;;;;;;;4.88;4.20;;;;;;;6.25;86.67;99236.75;4238760;28;20243;-82
2022/02/11 08:31:25;;;;;;;5.80;4.70;;;;;;;6.25;85.89;99241.94;4236150;28;20203;-82
2022/02/11 08:33:28;;;;;;;6.50;3.63;;;;;;;6.22;85.77;99250.66;4237857;28;20269;-82
2022/02/11 08:35:33;;;;;;;5.95;4.13;;;;;;;6.22;86.09;99247.22;4221978;28;20301;-82
2022/02/11 08:37:37;;;;;;;6.30;3.60;;;;;;;6.18;85.99;99253.41;4226429;28;20245;-81
2022/02/11 08:39:40;;;;;;;4.68;3.50;;;;;;;6.19;85.56;99268.03;4222033;28;20250;-81
2022/02/11 08:41:45;;;;;;;7.47;4.00;;;;;;;6.17;85.98;99268.06;4221322;28;20256;-82
2022/02/11 08:43:48;;;;;;;5.95;3.95;;;;;;;6.18;85.67;99263.75;4221150;28;20682;-81
2022/02/11 08:45:51;;;;;;;4.65;3.83;;;;;;;6.18;85.84;99271.53;4221403;28;20209;-80
2022/02/11 08:47:55;;;;;;;5.93;3.85;;;;;;;6.20;85.48;99273.16;4241761;27;20303;-81
2022/02/11 08:50:03;;;;;;;8.13;4.50;;;;;;;6.38;85.16;99282.94;4236390;27;20201;-81
2022/02/11 08:52:07;;;;;;;9.88;5.30;;;;;;;6.67;85.18;99283.63;4224262;28;20660;-81
2022/02/11 08:54:10;;;;;;;5.57;4.22;;;;;;;6.88;84.33;99276.88;4236800;27;20200;-81
2022/02/11 08:56:13;;;;;;;6.72;4.10;;;;;;;6.95;84.26;99287.00;4241295;27;20230;-80
2022/02/11 08:58:19;;;;;;;6.15;4.43;;;;;;;6.96;83.36;99283.50;4242546;27;20234;-81
2022/02/11 09:00:22;;;;;;;7.60;5.05;;;;;;;7.03;82.53;99286.72;4244646;27;20302;-82
2022/02/11 09:02:25;;;;;;;7.13;4.13;;;;;;;7.19;83.71;99291.31;4241072;27;20250;-81
2022/02/11 09:04:36;;;;;;;5.22;4.30;;;;;;;7.34;82.41;99293.38;4223118;28;20283;-80
2022/02/11 09:06:39;;;;;;;7.20;4.60;;;;;;;7.57;82.18;99301.97;4242809;27;20252;-83
2022/02/11 09:08:43;;;;;;;5.72;4.63;;;;;;;7.79;81.30;99303.72;4224126;28;20269;-82
2022/02/11 09:10:51;;;;;;;9.57;5.50;;;;;;;8.04;80.85;99307.91;4224973;28;20214;-83
2022/02/11 09:12:54;;;;;;;6.85;4.70;;;;;;;8.16;80.61;99302.28;4226574;28;20202;-82
2022/02/11 09:14:58;;;;;;;5.88;4.10;;;;;;;8.24;79.34;99310.59;4228032;27;20204;-83
2022/02/11 09:17:04;;;;;;;5.78;4.20;;;;;;;8.17;77.10;99303.94;4227090;28;20201;-82
2022/02/11 09:19:11;;;;;;;5.85;3.70;;;;;;;7.99;76.14;99327.16;4223774;27;20563;-83
2022/02/11 09:21:15;;;;;;;5.60;3.55;;;;;;;7.99;77.40;99321.97;4220968;28;20565;-82
2022/02/11 09:23:20;;;;;;;5.50;3.70;;;;;;;8.05;75.38;99329.53;4222887;27;20207;-82
2022/02/11 09:25:23;;;;;;;6.15;3.88;;;;;;;8.15;76.74;99326.56;4243066;27;20196;-82
2022/02/11 09:27:26;;;;;;;6.82;3.33;;;;;;;8.13;74.60;99324.91;4243477;27;20219;-82
2022/02/11 09:29:29;;;;;;;6.65;3.65;;;;;;;8.27;76.46;99335.59;4236101;27;20721;-81
2022/02/11 09:31:34;;;;;;;4.32;3.30;;;;;;;8.31;76.67;99329.41;4220028;28;20211;-82
2022/02/11 09:33:37;;;;;;;4.72;3.63;;;;;;;8.26;74.80;99347.75;4236458;27;20636;-80
2022/02/11 09:35:41;;;;;;;6.25;3.95;;;;;;;8.20;74.64;99347.16;4241041;27;20213;-80
2022/02/11 09:37:44;;;;;;;5.38;3.45;;;;;;;8.11;75.31;99357.88;4223136;28;20287;-81
2022/02/11 09:39:48;;;;;;;7.18;3.80;;;;;;;8.03;74.77;99362.53;4236861;27;20199;-81
2022/02/11 09:41:52;;;;;;;6.00;4.00;;;;;;;7.95;76.02;99366.31;4238357;27;20613;-81
2022/02/11 09:44:00;;;;;;;6.40;4.18;;;;;;;7.86;77.32;99366.66;4240256;27;20676;-81
2022/02/11 09:46:04;;;;;;;5.85;4.32;;;;;;;7.66;76.74;99377.75;4239812;27;20200;-80
2022/02/11 09:48:08;;;;;;;7.95;4.38;;;;;;;7.62;77.20;99375.31;4238758;27;20210;-81
2022/02/11 09:50:11;;;;;;;6.32;3.80;;;;;;;7.53;76.69;99376.53;4242191;27;20215;-81
2022/02/11 09:52:16;;;;;;;5.28;3.70;;;;;;;7.48;75.59;99383.59;4225234;28;20205;-82
2022/02/11 09:54:19;;;;;;;5.22;4.07;;;;;;;7.38;76.36;99381.41;4222925;28;20213;-81
2022/02/11 09:56:22;;;;;;;7.25;4.10;;;;;;;7.31;77.22;99389.47;4224520;28;20699;-83
2022/02/11 09:58:41;;;;;;;5.90;4.00;;;;;;;7.29;76.45;99388.66;4238096;27;20216;-81
2022/02/11 10:00:48;;;;;;;9.85;5.05;;;;;;;7.26;77.07;99379.25;4224357;28;20219;-81
2022/02/11 10:02:50;;;;;;;6.85;3.95;;;;;;;7.24;76.64;99375.84;4236917;27;20588;-81
2022/02/11 10:04:58;;;;;;;10.43;4.57;;;;;;;7.20;77.45;99374.28;4218806;28;20205;-81
2022/02/11 10:07:01;;;;;;;6.70;4.00;;;;;;;7.18;78.03;99381.22;4238847;27;20209;-83
2022/02/11 10:09:05;;;;;;;6.28;3.67;;;;;;;7.56;76.83;99380.75;4225158;28;20227;-82
2022/02/11 10:11:09;;;;;;;6.05;3.63;;;;;;;7.94;77.95;99390.56;4241720;27;20216;-81
2022/02/11 10:13:13;;;;;;;6.90;4.07;;;;;;;7.96;75.93;99385.25;4244785;27;20280;-80
2022/02/11 10:15:19;;;;;;;6.75;4.55;;;;;;;8.09;77.02;99385.69;4240615;27;20228;-80
2022/02/11 10:17:22;;;;;;;5.78;3.80;;;;;;;8.23;77.33;99394.66;4241320;27;20207;-83
2022/02/11 10:19:40;;;;;;;5.53;3.75;;;;;;;8.38;74.18;99401.88;4223826;27;20203;-83
2022/02/11 10:21:51;;;;;;;9.05;3.85;;;;;;;8.33;73.46;99396.00;4240068;27;20254;-82
2022/02/11 10:23:56;;;;;;;6.68;4.05;;;;;;;8.26;73.56;99397.13;4224778;27;20188;-82
2022/02/11 10:26:07;;;;;;;8.90;4.50;;;;;;;8.20;72.78;99397.38;4224004;28;20204;-81
2022/02/11 10:28:22;;;;;;;8.10;4.20;;;;;;;8.41;74.05;99413.91;4240813;27;20294;-84
2022/02/11 10:30:26;;;;;;;8.40;3.70;;;;;;;8.62;74.00;99408.72;4235902;27;20247;-84
2022/02/11 10:32:41;;;;;;;9.85;3.80;;;;;;;8.65;73.99;99400.78;4224831;28;20231;-83
2022/02/11 10:34:52;;;;;;;7.43;3.80;;;;;;;8.65;73.06;99408.59;4238988;27;20239;-82
2022/02/11 10:37:07;;;;;;;5.72;3.42;;;;;;;8.66;74.15;99412.88;4222746;28;20215;-83
2022/02/11 10:39:12;;;;;;;7.80;4.22;;;;;;;8.69;74.55;99421.41;4221091;28;20691;-83
2022/02/11 10:41:21;;;;;;;5.30;3.85;;;;;;;8.71;73.10;99416.16;4220871;28;20207;-83
2022/02/11 10:43:26;;;;;;;12.43;4.10;;;;;;;8.68;73.10;99419.72;4237066;27;20550;-81
2022/02/11 10:45:36;;;;;;;8.23;4.78;;;;;;;8.67;73.43;99412.81;4237347;27;20929;-81
2022/02/11 10:47:40;;;;;;;7.18;5.30;;;;;;;8.71;74.77;99413.56;4217845;28;20199;-81
2022/02/11 10:49:44;;;;;;;7.50;3.77;;;;;;;8.81;74.30;99415.72;4219399;28;20337;-83
2022/02/11 10:51:49;;;;;;;4.80;3.42;;;;;;;8.86;72.12;99420.75;4239880;27;20661;-81
2022/02/11 10:53:53;;;;;;;8.20;3.33;;;;;;;8.75;72.01;99428.09;4238404;27;20196;-81
2022/02/11 10:55:58;;;;;;;9.70;3.30;;;;;;;8.58;71.85;99427.94;4213170;28;20640;-81
2022/02/11 10:58:04;;;;;;;5.97;3.35;;;;;;;8.45;71.79;99429.31;4234053;27;20307;-81
2022/02/11 11:00:08;;;;;;;4.10;2.95;;;;;;;8.30;70.93;99424.72;4238473;27;20745;-81
2022/02/11 11:02:13;;;;;;;8.55;3.53;;;;;;;8.08;70.98;99415.16;4221455;28;20304;-82
2022/02/11 11:04:17;;;;;;;6.25;3.20;;;;;;;8.06;72.81;99417.81;4218741;28;20211;-83
2022/02/11 11:06:21;;;;;;;5.90;3.38;;;;;;;8.01;72.69;99417.13;4236653;27;20223;-85
2022/02/11 11:08:28;;;;;;;8.55;3.97;;;;;;;8.02;72.47;99416.22;4220262;28;20660;-84
2022/02/11 11:10:35;;;;;;;6.38;3.40;;;;;;;8.04;73.99;99424.81;4237255;27;20560;-83
2022/02/11 11:12:44;;;;;;;6.50;3.40;;;;;;;8.04;72.16;99426.53;4234602;27;20741;-82
2022/02/11 11:14:49;;;;;;;4.72;2.90;;;;;;;8.03;72.58;99425.72;4217632;28;20883;-81
2022/02/11 11:16:55;;;;;;;4.78;3.15;;;;;;;8.02;71.62;99438.75;4238073;27;20702;-81
2022/02/11 11:18:59;;;;;;;9.10;3.67;;;;;;;8.07;72.07;99434.22;4233413;27;21732;-82
2022/02/11 11:21:04;;;;;;;6.80;3.50;;;;;;;8.06;73.07;99429.94;4219876;28;20643;-82
2022/02/11 11:23:10;;;;;;;5.13;3.70;;;;;;;8.03;72.35;99424.88;4215896;28;20228;-81
2022/02/11 11:25:14;;;;;;;5.68;3.53;;;;;;;8.01;70.83;99419.72;4219109;28;20212;-81
2022/02/11 11:27:41;;;;;;;7.38;3.33;;;;;;;7.98;72.37;99413.78;4250394;27;20214;-81
2022/02/11 11:29:44;;;;;;;6.07;3.40;;;;;;;7.92;72.93;99419.19;4236841;27;20752;-81
2022/02/11 11:31:56;;;;;;;6.13;3.38;;;;;;;7.93;72.18;99423.50;4238405;27;20203;-81
2022/02/11 11:34:32;;;;;;;4.18;2.85;;;;;;;7.92;73.73;99429.59;4237826;27;20231;-81
2022/02/11 11:36:35;;;;;;;5.57;3.65;;;;;;;7.89;71.85;99440.09;4232347;27;20203;-81
2022/02/11 11:38:49;;;;;;;8.98;2.95;;;;;;;7.87;72.67;99435.88;4222094;28;20211;-81
2022/02/11 11:40:58;;;;;;;4.60;3.50;;;;;;;7.87;72.22;99430.69;4232332;27;20191;-81
2022/02/11 11:43:13;;;;;;;8.05;3.53;;;;;;;7.90;72.35;99435.75;4238079;27;20703;-81
2022/02/11 11:45:28;;;;;;;6.38;3.78;;;;;;;7.95;72.93;99441.63;4219476;28;20311;-82
2022/02/11 11:47:34;;;;;;;8.57;4.20;;;;;;;7.97;73.88;99444.13;4221027;28;20206;-81
2022/02/11 11:49:47;;;;;;;8.27;3.63;;;;;;;7.99;72.60;99447.50;4223376;28;20204;-82
2022/02/11 11:52:07;;;;;;;4.50;3.35;;;;;;;7.96;71.94;99445.94;4238917;27;20281;-81
2022/02/11 11:54:26;;;;;;;8.70;4.72;;;;;;;7.90;74.23;99451.34;4242874;27;20687;-82
2022/02/11 11:56:33;;;;;;;5.30;3.45;;;;;;;7.93;74.59;99451.22;4242208;27;20674;-81
2022/02/11 11:58:46;;;;;;;4.93;3.42;;;;;;;7.96;73.62;99455.38;4240127;28;20233;-81
2022/02/11 12:00:59;;;;;;;5.25;3.55;;;;;;;7.97;73.33;99446.72;4237489;28;20307;-81
2022/02/11 12:03:03;;;;;;;12.88;3.92;;;;;;;7.99;72.42;99442.28;4232193;28;20211;-82
2022/02/11 12:05:07;;;;;;;7.25;3.40;;;;;;;8.01;71.82;99450.03;4217933;28;20201;-80
2022/02/11 12:07:13;;;;;;;6.07;3.72;;;;;;;8.03;71.46;99443.88;4238730;27;20209;-81
2022/02/11 12:09:16;;;;;;;6.75;3.50;;;;;;;8.12;71.53;99446.19;4219493;28;20206;-81
2022/02/11 12:11:23;;;;;;;5.63;3.38;;;;;;;8.08;72.17;99439.38;4218087;28;20561;-81
2022/02/11 12:13:26;;;;;;;6.05;3.90;;;;;;;8.09;72.04;99438.47;4232463;27;20593;-81
2022/02/11 12:15:30;;;;;;;5.30;3.30;;;;;;;8.04;72.57;99439.53;4235091;28;20207;-82
2022/02/11 12:17:34;;;;;;;11.82;8.32;;;;;;;8.05;71.43;99441.25;4237700;28;20200;-82
2022/02/11 12:19:38;;;;;;;5.93;3.58;;;;;;;8.11;71.12;99439.28;4236705;27;20734;-82
2022/02/11 12:21:41;;;;;;;8.48;3.65;;;;;;;8.18;70.98;99432.13;4225076;28;20295;-81
2022/02/11 12:28:30;;;;;;;6.72;3.05;;;;;;;8.35;71.30;99440.97;4225073;28;20235;-81
2022/02/11 12:30:42;;;;;;;5.35;3.40;;;;;;;8.40;71.13;99444.22;4240945;27;20272;-81
2022/02/11 12:32:52;;;;;;;6.22;3.33;;;;;;;8.41;71.61;99435.53;4225090;28;20229;-81
2022/02/11 12:34:57;;;;;;;10.30;4.45;;;;;;;8.30;71.56;99444.63;4241735;27;20199;-81
2022/02/11 12:37:01;;;;;;;4.57;3.35;;;;;;;8.31;70.21;99434.19;4241291;27;20701;-81
2022/02/11 12:39:04;;;;;;;4.85;3.70;;;;;;;8.33;69.82;99434.13;4240157;27;20238;-82
2022/02/11 12:41:07;;;;;;;6.47;3.22;;;;;;;8.28;70.54;99439.50;4238558;27;20855;-82
2022/02/11 12:43:11;;;;;;;4.85;3.30;;;;;;;8.28;69.58;99433.47;4243074;27;20674;-82
2022/02/11 12:45:20;;;;;;;9.32;4.15;;;;;;;8.29;69.61;99435.16;4224881;28;20211;-81
2022/02/11 12:47:26;;;;;;;6.35;3.60;;;;;;;8.28;70.01;99434.28;4241339;27;20204;-82
2022/02/11 12:49:33;;;;;;;7.72;3.38;;;;;;;8.27;71.12;99432.63;4242621;27;20199;-82
2022/02/11 12:51:37;;;;;;;5.60;3.45;;;;;;;8.18;70.49;99432.13;4242417;27;20663;-81
2022/02/11 12:53:40;;;;;;;4.05;3.20;;;;;;;8.23;71.66;99425.84;4226783;28;20311;-81
2022/02/11 12:55:49;;;;;;;6.78;3.58;;;;;;;8.27;70.33;99426.56;4243234;27;20227;-81
2022/02/11 12:57:57;;;;;;;6.55;3.80;;;;;;;8.30;70.41;99423.84;4238688;27;20216;-82
2022/02/11 13:00:00;;;;;;;7.65;3.70;;;;;;;8.30;71.49;99421.25;4237763;27;20207;-81
2022/02/11 13:02:04;;;;;;;7.15;3.92;;;;;;;8.27;70.40;99427.44;4227511;28;20704;-82
2022/02/11 13:04:18;;;;;;;4.75;3.70;;;;;;;8.31;70.54;99430.75;4239709;27;20217;-82
2022/02/11 13:06:21;;;;;;;8.45;5.07;;;;;;;8.30;72.50;99429.91;4228524;28;20210;-82
2022/02/11 13:08:26;;;;;;;7.32;4.40;;;;;;;8.34;71.16;99434.06;4240282;27;20206;-82
2022/02/11 13:10:31;;;;;;;5.60;3.92;;;;;;;8.39;71.90;99432.16;4238027;27;20184;-82
2022/02/11 13:12:37;;;;;;;4.10;3.30;;;;;;;8.53;71.24;99424.66;4245720;27;20203;-82
2022/02/11 13:14:43;;;;;;;7.15;3.50;;;;;;;8.66;69.41;99431.06;4226537;28;20211;-82
2022/02/11 13:16:49;;;;;;;4.85;2.90;;;;;;;8.72;69.77;99423.03;4240630;27;20702;-81